Flight Track Log - Related Links

Times and Time Zones

All times are in EDT time to prevent confusion due to time zone crossing. See the AWE2012 flight status page for this flight to view local times or setup timezone preferences in your user account.

Time Position Orientation Groundspeed Altitude Reporting Facility
EDT Latitude Longitude Course Direction KTS MPH feet Rate Location/Type
Wed 06:24:19 AM 39.8667 -75.2833 37° Northeast 156 180 800  Level Philadelphia TRACON
Wed 06:24:55 AM 39.8333 -75.3000 201° Southwest 170 196 2,200 2,688 Climbing Philadelphia TRACON
Wed 06:25:55 AM 39.8000 -75.3500 229° Southwest 220 253 5,100 2,693 Climbing Philadelphia TRACON
Wed 06:26:00 AM 39.8110 -74.8384 105° East  Level FlightAware Approximate
Wed 06:27:00 AM 39.7845 -74.7057 105° East  Level FlightAware Approximate
Wed 06:28:00 AM 39.8633 -74.6201 37° Northeast  Level FlightAware Approximate
Wed 06:28:20 AM 39.7611 -75.1564 105° East 262 302 11,400  Level New York Center
Wed 06:29:00 AM 39.9503 -74.5497 37° Northeast  Level FlightAware Approximate
Wed 06:29:19 AM 39.7697 -75.0328 85° East 354 407 12,100  Level New York Center
Wed 06:30:19 AM 39.7817 -74.8714 84° East 398 458 12,100 1,100 Level New York Center
Wed 06:31:19 AM 39.8033 -74.7239 79° East 413 475 14,300 2,500 Climbing New York Center
Wed 06:32:19 AM 39.8858 -74.6258 42° Northeast 376 433 17,100 3,000 Climbing New York Center
Wed 06:33:19 AM 39.9675 -74.5492 36° Northeast 376 433 20,300 2,650 Climbing New York Center
Wed 06:34:19 AM 40.0689 -74.4461 38° Northeast 389 448 22,400 1,350 Climbing New York Center
Wed 06:35:19 AM 40.1600 -74.3289 44° Northeast 418 481 23,000 300 Climbing New York Center
Wed 06:36:19 AM 40.2531 -74.2139 43° Northeast 436 502 23,000  Level New York Center
Wed 06:37:19 AM 40.3417 -74.0986 45° Northeast 447 514 23,000  Level New York Center
Wed 06:38:52 AM 40.4819 -73.9278 43° Northeast 463 533 23,000  Level Boston Center
Wed 06:39:53 AM 40.5756 -73.8097 44° Northeast 465 535 23,000  Level Boston Center
Wed 06:40:54 AM 40.6667 -73.6925 44° Northeast 460 529 23,000  Level Boston Center
Wed 06:41:55 AM 40.7575 -73.5750 44° Northeast 456 525 23,000  Level Boston Center
Wed 06:42:56 AM 40.8483 -73.4567 45° Northeast 456 525 23,000  Level Boston Center
Wed 06:43:57 AM 40.9386 -73.3239 48° Northeast 461 531 23,000  Level Boston Center
Wed 06:44:58 AM 41.0242 -73.1972 48° Northeast 463 533 23,000  Level Boston Center
Wed 06:45:59 AM 41.1094 -73.0711 48° Northeast 462 532 23,000  Level Boston Center
Wed 06:47:00 AM 41.1733 -72.9217 60° Northeast 467 537 23,000  Level Boston Center
Wed 06:48:01 AM 41.2322 -72.7678 63° Northeast 469 540 23,000  Level Boston Center
Wed 06:49:02 AM 41.2900 -72.6089 64° Northeast 471 542 23,000 -148 Level Boston Center
Wed 06:50:03 AM 41.3481 -72.4569 63° Northeast 462 532 22,700 -1,131 Descending Boston Center
Wed 06:51:04 AM 41.4147 -72.2756 64° Northeast 454 522 20,700 -1,770 Descending Boston Center
Wed 06:52:05 AM 41.4661 -72.1381 63° Northeast 439 505 19,100 -1,574 Descending Boston Center
Wed 06:53:06 AM 41.5189 -71.9947 64° Northeast 426 490 17,500 -2,213 Descending Boston Center
Wed 06:54:07 AM 41.5736 -71.8458 64° Northeast 419 482 14,600 -2,115 Descending Boston Center
Wed 06:55:08 AM 41.6219 -71.7142 64° Northeast 400 460 13,200 -1,426 Descending Boston Center
Wed 06:56:09 AM 41.6667 -71.5886 64° Northeast 381 438 11,700 -1,082 Descending Boston Center
Wed 06:57:10 AM 41.7106 -71.4681 64° Northeast 340 391 11,000 -344 Descending Boston Center
Wed 06:58:11 AM 41.7611 -71.3694 55° Northeast 329 379 11,000 -98 Level Boston Center
Wed 06:59:12 AM 41.8242 -71.2836 45° Northeast 325 374 10,800 -885 Descending Boston Center
Wed 07:00:13 AM 41.9089 -71.2328 24° Northeast 312 359 9,200 -1,574 Descending Boston Center
Wed 07:01:14 AM 41.9886 -71.1914 21° North 308 354 7,600 -1,475 Descending Boston Center
Wed 07:02:15 AM 42.0653 -71.1489 22° Northeast 299 344 6,200 -1,426 Descending Boston Center
Wed 07:03:16 AM 42.1378 -71.1161 19° North 276 318 4,700 -1,475 Descending Boston Center
Wed 07:04:17 AM 42.2050 -71.0836 20° North 241 277 3,200 -1,230 Descending Boston Center
Wed 07:05:18 AM 42.2564 -71.0586 20° North 202 232 2,200 -934 Descending Boston Center
Wed 07:06:19 AM 42.2978 -71.0389 19° North 163 188 1,300 -836 Descending Boston Center
Wed 07:07:20 AM 42.3356 -71.0197 21° North 144 166 500 -787 Descending Boston Center

Login

Don't have an account? Register now (free) for customized features, flight alerts, and more!